KMMU/MMU METAR and TAF weather

Enter ICAO airport designator
Station Type Date Time Source
KMMU METAR 2019/08/23 17:50 UTC NOAA

KMMU 231750Z 00000KT 10SM FEW030 SCT060 OVC100 22/19 A3002


Station Type Date Time Source
KMMU Decoded METAR 2019/08/23 17:50 UTC NOAA

Station name not available
Aug 23, 2019 - 01:50 PM EDT / 2019.08.23 1750 UTC
Wind: Calm:0
Visibility: 10 mile(s):0
Sky conditions: overcast
Temperature: 71 F (22 C)
Dew Point: 66 F (19 C)
Relative Humidity: 83%
Pressure (altimeter): 30.02 in. Hg (1016 hPa)
ob: KMMU 231750Z 00000KT 10SM FEW030 SCT060 OVC100 22/19 A3002
cycle: 18

Station Type Date Time Source
KMMU TAF UTC NOAA

Error!

Example: see airport list